createdAt,value
2023-02-12T00:00:04.044Z,2.70
2023-02-12T00:02:31.074Z,2.80
2023-02-12T00:04:57.764Z,2.80
2023-02-12T00:07:24.648Z,2.80
2023-02-12T00:09:51.283Z,2.80
2023-02-12T00:12:17.945Z,2.80
2023-02-12T00:14:45.413Z,2.80
2023-02-12T00:17:12.060Z,2.80
2023-02-12T00:19:38.964Z,2.80
2023-02-12T00:22:05.625Z,2.90
2023-02-12T00:24:32.632Z,2.80
2023-02-12T00:26:59.556Z,2.90
2023-02-12T00:29:26.233Z,2.90
2023-02-12T00:31:53.218Z,2.90
2023-02-12T00:34:19.896Z,2.90
2023-02-12T00:36:46.549Z,2.90
2023-02-12T00:39:13.485Z,2.90
2023-02-12T00:41:40.153Z,2.90
2023-02-12T00:44:07.056Z,2.90
2023-02-12T00:46:33.752Z,2.90
2023-02-12T00:49:00.440Z,2.90
2023-02-12T00:51:27.403Z,2.90
2023-02-12T00:53:54.149Z,2.90
2023-02-12T00:56:21.261Z,2.90
2023-02-12T00:58:47.918Z,2.90
2023-02-12T01:01:15.018Z,2.90
2023-02-12T01:03:41.958Z,2.90
2023-02-12T01:06:08.800Z,2.90
2023-02-12T01:08:35.536Z,2.90
2023-02-12T01:11:04.506Z,2.90
2023-02-12T01:13:32.800Z,2.90
2023-02-12T01:16:06.952Z,2.90
2023-02-12T01:18:33.944Z,2.90
2023-02-12T01:21:01.414Z,3.00
2023-02-12T01:23:28.104Z,3.00
2023-02-12T01:25:55.128Z,2.90
2023-02-12T01:28:22.007Z,3.00
2023-02-12T01:30:48.772Z,3.00
2023-02-12T01:33:15.808Z,3.00
2023-02-12T01:35:42.725Z,3.00
2023-02-12T01:38:09.447Z,3.00
2023-02-12T01:40:37.324Z,3.00
2023-02-12T01:43:04.280Z,3.00
2023-02-12T01:45:37.151Z,3.00
2023-02-12T01:48:03.971Z,3.00
2023-02-12T01:50:30.891Z,3.00
2023-02-12T01:52:58.999Z,3.00
2023-02-12T01:55:26.181Z,3.00
2023-02-12T01:57:52.858Z,3.10
2023-02-12T02:00:24.820Z,3.10
2023-02-12T02:02:56.811Z,3.10
2023-02-12T02:05:44.292Z,3.10
2023-02-12T02:08:12.410Z,3.10
2023-02-12T02:10:39.137Z,3.10
2023-02-12T02:13:26.671Z,3.10
2023-02-12T02:15:58.865Z,3.10
2023-02-12T02:18:36.610Z,3.10
2023-02-12T02:21:44.524Z,3.10
2023-02-12T02:24:42.208Z,3.10
2023-02-12T02:27:32.378Z,3.10
2023-02-12T02:30:08.154Z,3.10
2023-02-12T02:32:46.278Z,3.10
2023-02-12T02:35:41.895Z,3.10
2023-02-12T02:38:21.188Z,3.10
2023-02-12T02:41:11.358Z,3.10
2023-02-12T02:43:50.767Z,3.10
2023-02-12T02:46:30.499Z,3.20
2023-02-12T02:49:02.220Z,3.20
2023-02-12T02:51:33.228Z,3.20
2023-02-12T02:54:03.266Z,3.10
2023-02-12T02:56:30.639Z,3.20
2023-02-12T02:59:03.901Z,3.20
2023-02-12T03:01:44.045Z,3.20
2023-02-12T03:04:52.605Z,3.20
2023-02-12T03:07:26.110Z,3.20
2023-02-12T03:10:10.767Z,3.20
2023-02-12T03:12:44.106Z,3.20
2023-02-12T03:15:19.208Z,3.20
2023-02-12T03:17:48.975Z,3.20
2023-02-12T03:20:28.199Z,3.20
2023-02-12T03:23:02.060Z,3.20
2023-02-12T03:25:35.619Z,3.20
2023-02-12T03:28:24.114Z,3.20
2023-02-12T03:30:58.918Z,3.20
2023-02-12T03:33:53.604Z,3.20
2023-02-12T03:36:42.388Z,3.20
2023-02-12T03:39:25.394Z,3.20
2023-02-12T03:42:00.980Z,3.30
2023-02-12T03:44:44.428Z,3.30
2023-02-12T03:47:51.087Z,3.30
2023-02-12T03:50:23.738Z,3.40
2023-02-12T03:52:51.352Z,3.40
2023-02-12T03:55:18.103Z,3.40
2023-02-12T03:57:50.580Z,3.40
2023-02-12T04:00:21.254Z,3.40
2023-02-12T04:02:48.767Z,3.40
2023-02-12T04:05:20.450Z,3.40
2023-02-12T04:07:47.892Z,3.40
2023-02-12T04:10:15.308Z,3.30
2023-02-12T04:13:21.818Z,3.30
2023-02-12T04:16:14.048Z,3.20
2023-02-12T04:18:44.954Z,3.20
2023-02-12T04:21:42.855Z,3.20
2023-02-12T04:24:12.440Z,3.20
2023-02-12T04:26:59.285Z,3.20
2023-02-12T04:29:46.860Z,3.20
2023-02-12T04:32:30.778Z,3.20
2023-02-12T04:35:31.920Z,3.20
2023-02-12T04:38:21.886Z,3.30
2023-02-12T04:40:49.798Z,3.30
2023-02-12T04:43:31.063Z,3.20
2023-02-12T04:45:58.370Z,3.20
2023-02-12T04:48:25.207Z,3.20
2023-02-12T04:50:52.372Z,3.10
2023-02-12T04:53:19.287Z,3.00
2023-02-12T04:55:47.592Z,2.80
2023-02-12T04:58:14.503Z,2.70
2023-02-12T05:00:41.324Z,2.60
2023-02-12T05:03:08.000Z,2.50
2023-02-12T05:05:35.276Z,2.40
2023-02-12T05:08:01.934Z,2.30
2023-02-12T05:10:28.861Z,2.30
2023-02-12T05:12:56.248Z,2.20
2023-02-12T05:15:23.132Z,2.30
2023-02-12T05:17:49.819Z,2.30
2023-02-12T05:20:17.009Z,2.30
2023-02-12T05:22:43.616Z,2.30
2023-02-12T05:25:10.300Z,2.30
2023-02-12T05:27:37.268Z,2.20
2023-02-12T05:30:05.717Z,2.30
2023-02-12T05:32:32.870Z,2.30
2023-02-12T05:34:59.525Z,2.40
2023-02-12T05:37:39.240Z,2.40
2023-02-12T05:40:07.126Z,2.40
2023-02-12T05:42:33.768Z,2.40
2023-02-12T05:45:00.671Z,2.30
2023-02-12T05:47:27.796Z,2.20
2023-02-12T05:49:54.666Z,2.10
2023-02-12T05:52:21.578Z,2.10
2023-02-12T05:54:50.540Z,2.10
2023-02-12T05:57:17.229Z,2.20
2023-02-12T05:59:44.140Z,2.20
2023-02-12T06:02:10.753Z,2.20
2023-02-12T06:04:37.659Z,2.20
2023-02-12T06:07:04.578Z,2.10
2023-02-12T06:09:31.211Z,2.10
2023-02-12T06:11:58.104Z,2.10
2023-02-12T06:14:24.791Z,2.10
2023-02-12T06:16:52.486Z,2.10
2023-02-12T06:19:20.442Z,2.10
2023-02-12T06:21:47.439Z,2.10
2023-02-12T06:24:15.847Z,2.10
2023-02-12T06:26:43.086Z,2.10
2023-02-12T06:29:10.222Z,2.10
2023-02-12T06:31:37.579Z,2.10
2023-02-12T06:34:08.393Z,2.20
2023-02-12T06:36:41.065Z,2.20
2023-02-12T06:39:08.721Z,2.30
2023-02-12T06:41:35.375Z,2.30
2023-02-12T06:44:02.090Z,2.30
2023-02-12T06:46:29.060Z,2.30
2023-02-12T06:48:57.665Z,2.40
2023-02-12T06:51:25.340Z,2.40
2023-02-12T06:53:53.834Z,2.40
2023-02-12T06:56:22.201Z,2.40
2023-02-12T06:58:57.149Z,2.40
2023-02-12T07:01:26.751Z,2.40
2023-02-12T07:03:57.017Z,2.50
2023-02-12T07:06:24.691Z,2.50
2023-02-12T07:08:51.341Z,2.50
2023-02-12T07:11:18.536Z,2.50
2023-02-12T07:13:45.661Z,2.60
2023-02-12T07:16:14.954Z,2.60
2023-02-12T07:18:43.212Z,2.70
2023-02-12T07:21:11.465Z,2.70
2023-02-12T07:23:39.186Z,2.70
2023-02-12T07:26:08.940Z,2.70
2023-02-12T07:28:36.312Z,2.70
2023-02-12T07:31:09.641Z,2.80
2023-02-12T07:33:37.651Z,2.80
2023-02-12T07:36:06.389Z,2.90
2023-02-12T07:38:35.968Z,2.90
2023-02-12T07:41:10.869Z,2.90
2023-02-12T07:43:38.092Z,3.00
2023-02-12T07:46:19.720Z,3.00
2023-02-12T07:48:47.227Z,3.00
2023-02-12T07:51:21.347Z,3.10
2023-02-12T07:53:49.025Z,3.10
2023-02-12T07:56:18.796Z,3.20
2023-02-12T07:58:47.211Z,3.30
2023-02-12T08:01:28.866Z,3.30
2023-02-12T08:04:04.110Z,3.30
2023-02-12T08:06:51.175Z,3.40
2023-02-12T08:09:20.785Z,3.50
2023-02-12T08:11:49.063Z,3.60
2023-02-12T08:14:17.949Z,3.60
2023-02-12T08:16:46.224Z,3.70
2023-02-12T08:19:20.967Z,3.70
2023-02-12T08:21:51.498Z,3.70
2023-02-12T08:24:18.521Z,3.70
2023-02-12T08:26:45.248Z,3.70
2023-02-12T08:29:16.232Z,3.60
2023-02-12T08:31:45.551Z,3.60
2023-02-12T08:34:21.569Z,3.60
2023-02-12T08:36:50.141Z,3.70
2023-02-12T08:39:18.295Z,3.90
2023-02-12T08:41:45.012Z,4.00
2023-02-12T08:44:12.907Z,4.20
2023-02-12T08:46:43.671Z,4.30
2023-02-12T08:49:16.271Z,4.40
2023-02-12T08:51:45.975Z,4.40
2023-02-12T08:54:16.742Z,4.60
2023-02-12T08:56:45.585Z,4.60
2023-02-12T08:59:14.832Z,4.70
2023-02-12T09:01:42.092Z,4.90
2023-02-12T09:04:24.013Z,4.90
2023-02-12T09:06:51.512Z,4.80
2023-02-12T09:09:19.912Z,4.80
2023-02-12T09:11:47.862Z,4.60
2023-02-12T09:14:16.861Z,4.50
2023-02-12T09:16:43.950Z,4.40
2023-02-12T09:19:13.217Z,4.30
2023-02-12T09:21:40.537Z,4.30
2023-02-12T09:24:07.406Z,4.20
2023-02-12T09:26:34.108Z,4.20
2023-02-12T09:29:02.833Z,4.20
2023-02-12T09:31:31.638Z,4.20
2023-02-12T09:34:04.380Z,4.30
2023-02-12T09:36:32.020Z,4.40
2023-02-12T09:38:59.483Z,4.60
2023-02-12T09:42:19.482Z,4.70
2023-02-12T09:45:01.211Z,4.70
2023-02-12T09:47:39.760Z,4.90
2023-02-12T09:50:33.090Z,4.90
2023-02-12T09:53:00.503Z,5.10
2023-02-12T09:55:31.636Z,5.30
2023-02-12T09:58:01.059Z,5.50
2023-02-12T10:00:31.097Z,5.80
2023-02-12T10:03:05.154Z,5.90
2023-02-12T10:05:41.039Z,6.10
2023-02-12T10:08:36.776Z,6.40
2023-02-12T10:11:40.212Z,7.00
2023-02-12T10:14:33.056Z,7.40
2023-02-12T10:17:18.212Z,7.70
2023-02-12T10:20:04.364Z,8.10
2023-02-12T10:22:56.361Z,8.50
2023-02-12T10:25:52.230Z,8.90
2023-02-12T10:28:25.959Z,9.40
2023-02-12T10:31:29.357Z,9.60
2023-02-12T10:33:57.188Z,10.00
2023-02-12T10:36:44.137Z,10.30
2023-02-12T10:39:10.750Z,10.40
2023-02-12T10:41:49.498Z,10.20
2023-02-12T10:44:16.263Z,10.30
2023-02-12T10:46:42.990Z,10.30
2023-02-12T10:49:14.158Z,10.10
2023-02-12T10:52:07.708Z,10.10
2023-02-12T10:54:36.390Z,10.00
2023-02-12T10:57:14.596Z,10.10
2023-02-12T10:59:43.450Z,10.10
2023-02-12T11:02:24.084Z,10.00
2023-02-12T11:04:51.884Z,10.20
2023-02-12T11:07:18.974Z,10.20
2023-02-12T11:09:48.277Z,10.10
2023-02-12T11:12:30.629Z,9.90
2023-02-12T11:15:17.699Z,9.90
2023-02-12T11:17:54.918Z,10.10
2023-02-12T11:20:28.253Z,10.10
2023-02-12T11:23:04.192Z,10.00
2023-02-12T11:25:34.135Z,9.90
2023-02-12T11:28:18.078Z,9.70
2023-02-12T11:30:55.829Z,9.60
2023-02-12T11:33:35.215Z,9.40
2023-02-12T11:36:25.906Z,9.30
2023-02-12T11:38:59.185Z,9.50
2023-02-12T11:41:38.142Z,9.60
2023-02-12T11:44:20.963Z,9.70
2023-02-12T11:46:55.593Z,9.80
2023-02-12T11:49:29.902Z,9.90
2023-02-12T11:51:58.183Z,9.70
2023-02-12T11:54:28.772Z,9.80
2023-02-12T11:56:55.845Z,9.70
2023-02-12T11:59:33.563Z,9.70
2023-02-12T12:02:32.637Z,9.60
2023-02-12T12:05:09.300Z,9.60
2023-02-12T12:07:39.862Z,9.60
2023-02-12T12:10:31.338Z,9.50
2023-02-12T12:13:02.504Z,9.30
2023-02-12T12:15:51.180Z,9.10
2023-02-12T12:19:00.813Z,9.10
2023-02-12T12:21:45.267Z,9.00
2023-02-12T12:24:20.805Z,9.00
2023-02-12T12:27:24.445Z,8.90
2023-02-12T12:30:03.727Z,8.80
2023-02-12T12:32:31.770Z,8.80
2023-02-12T12:34:58.530Z,8.90
2023-02-12T12:37:44.162Z,8.80
2023-02-12T12:40:31.976Z,8.70
2023-02-12T12:43:11.027Z,8.80
2023-02-12T12:45:55.758Z,8.90
2023-02-12T12:48:44.656Z,9.00
2023-02-12T12:51:26.382Z,9.10
2023-02-12T12:54:00.555Z,9.20
2023-02-12T12:56:45.208Z,9.40
2023-02-12T12:59:34.762Z,9.40
2023-02-12T13:02:08.492Z,9.50
2023-02-12T13:04:47.206Z,9.60
2023-02-12T13:07:32.717Z,9.70
2023-02-12T13:10:26.392Z,9.70
2023-02-12T13:13:36.539Z,9.60
2023-02-12T13:16:19.370Z,9.50
2023-02-12T13:19:03.357Z,9.30
2023-02-12T13:22:09.825Z,9.20
2023-02-12T13:24:47.373Z,9.10
2023-02-12T13:27:21.949Z,8.90
2023-02-12T13:29:54.989Z,8.80
2023-02-12T13:32:43.453Z,8.70
2023-02-12T13:35:20.914Z,8.60
2023-02-12T13:37:51.976Z,8.60
2023-02-12T13:40:20.378Z,8.50
2023-02-12T13:43:07.985Z,8.40
2023-02-12T13:45:48.410Z,8.50
2023-02-12T13:48:33.744Z,8.50
2023-02-12T13:51:15.984Z,8.50
2023-02-12T13:54:06.868Z,8.40
2023-02-12T13:56:38.480Z,8.50
2023-02-12T13:59:36.867Z,8.60
2023-02-12T14:02:13.064Z,8.70
2023-02-12T14:04:54.633Z,8.80
2023-02-12T14:07:22.236Z,9.00
2023-02-12T14:09:51.870Z,9.20
2023-02-12T14:12:24.660Z,9.40
2023-02-12T14:14:56.963Z,9.40
2023-02-12T14:17:30.054Z,9.20
2023-02-12T14:20:11.722Z,9.10
2023-02-12T14:22:44.573Z,9.00
2023-02-12T14:25:14.573Z,8.80
2023-02-12T14:27:57.582Z,8.80
2023-02-12T14:30:39.041Z,8.70
2023-02-12T14:33:27.404Z,8.60
2023-02-12T14:36:20.295Z,8.50
2023-02-12T14:38:48.023Z,8.50
2023-02-12T14:41:44.986Z,8.30
2023-02-12T14:44:17.663Z,8.10
2023-02-12T14:46:50.271Z,8.00
2023-02-12T14:49:27.291Z,7.90
2023-02-12T14:51:59.074Z,7.80
2023-02-12T14:54:50.791Z,7.70
2023-02-12T14:57:32.388Z,7.60
2023-02-12T15:00:19.081Z,7.60
2023-02-12T15:02:58.368Z,7.50
2023-02-12T15:05:31.454Z,7.40
2023-02-12T15:08:06.850Z,7.40
2023-02-12T15:10:59.428Z,7.30
2023-02-12T15:13:38.694Z,7.20
2023-02-12T15:16:47.980Z,7.10
2023-02-12T15:19:20.049Z,7.10
2023-02-12T15:21:47.590Z,7.10
2023-02-12T15:24:23.324Z,7.10
2023-02-12T15:26:56.555Z,7.10
2023-02-12T15:29:30.204Z,7.10
2023-02-12T15:32:02.891Z,7.10
2023-02-12T15:34:33.576Z,7.00
2023-02-12T15:37:04.582Z,7.00
2023-02-12T15:39:43.700Z,7.00
2023-02-12T15:42:32.672Z,7.00
2023-02-12T15:45:27.414Z,6.90
2023-02-12T15:48:09.503Z,6.70
2023-02-12T15:50:59.164Z,6.60
2023-02-12T15:53:30.669Z,6.40
2023-02-12T15:55:59.080Z,6.40
2023-02-12T15:58:33.089Z,6.30
2023-02-12T16:01:02.960Z,6.30
2023-02-12T16:03:33.370Z,6.20
2023-02-12T16:06:14.065Z,6.10
2023-02-12T16:09:06.796Z,6.10
2023-02-12T16:11:42.936Z,6.10
2023-02-12T16:14:31.404Z,6.00
2023-02-12T16:16:59.574Z,6.00
2023-02-12T16:19:37.003Z,5.90
2023-02-12T16:22:12.738Z,5.90
2023-02-12T16:24:45.944Z,5.80
2023-02-12T16:27:15.900Z,5.80
2023-02-12T16:30:27.383Z,5.70
2023-02-12T16:32:54.594Z,5.60
2023-02-12T16:35:26.317Z,5.50
2023-02-12T16:38:35.138Z,5.40
2023-02-12T16:41:25.359Z,5.40
2023-02-12T16:44:01.453Z,5.30
2023-02-12T16:46:45.099Z,5.30
2023-02-12T16:49:18.107Z,5.20
2023-02-12T16:51:46.217Z,5.20
2023-02-12T16:54:33.582Z,5.20
2023-02-12T16:57:01.351Z,5.20
2023-02-12T16:59:29.216Z,5.10
2023-02-12T17:02:06.904Z,5.10
2023-02-12T17:04:33.648Z,5.10
2023-02-12T17:07:00.375Z,5.10
2023-02-12T17:09:29.847Z,5.10
2023-02-12T17:11:57.369Z,5.10
2023-02-12T17:14:23.992Z,5.00
2023-02-12T17:16:50.739Z,5.00
2023-02-12T17:19:17.436Z,5.00
2023-02-12T17:21:49.306Z,4.90
2023-02-12T17:24:22.324Z,4.90
2023-02-12T17:26:53.111Z,4.80
2023-02-12T17:29:21.259Z,4.80
2023-02-12T17:31:48.332Z,4.80
2023-02-12T17:34:16.402Z,4.80
2023-02-12T17:36:43.073Z,4.80
2023-02-12T17:39:12.829Z,4.80
2023-02-12T17:41:40.753Z,4.80
2023-02-12T17:44:07.788Z,4.80
2023-02-12T17:46:34.677Z,4.70
2023-02-12T17:49:01.711Z,4.60
2023-02-12T17:51:28.590Z,4.60
2023-02-12T17:53:55.297Z,4.70
2023-02-12T17:56:25.804Z,4.60
2023-02-12T17:58:52.856Z,4.50
2023-02-12T18:01:21.947Z,4.50
2023-02-12T18:03:51.978Z,4.50
2023-02-12T18:06:28.464Z,4.50
2023-02-12T18:08:56.832Z,4.50
2023-02-12T18:11:24.007Z,4.50
2023-02-12T18:13:56.051Z,4.40
2023-02-12T18:16:24.315Z,4.40
2023-02-12T18:18:51.397Z,4.40
2023-02-12T18:21:18.553Z,4.40
2023-02-12T18:23:45.490Z,4.40
2023-02-12T18:26:15.217Z,4.30
2023-02-12T18:28:43.056Z,4.40
2023-02-12T18:31:10.455Z,4.40
2023-02-12T18:33:38.510Z,4.40
2023-02-12T18:36:12.381Z,4.40
2023-02-12T18:38:40.909Z,4.40
2023-02-12T18:41:26.558Z,4.30
2023-02-12T18:43:55.000Z,4.30
2023-02-12T18:46:30.398Z,4.30
2023-02-12T18:48:57.913Z,4.20
2023-02-12T18:51:27.418Z,4.20
2023-02-12T18:53:55.325Z,4.10
2023-02-12T18:56:22.018Z,4.10
2023-02-12T18:58:48.676Z,4.10
2023-02-12T19:01:18.745Z,4.10
2023-02-12T19:03:46.972Z,4.00
2023-02-12T19:06:14.159Z,4.00
2023-02-12T19:08:41.001Z,3.90
2023-02-12T19:11:10.052Z,3.90
2023-02-12T19:13:37.009Z,3.80
2023-02-12T19:16:12.914Z,3.80
2023-02-12T19:18:40.251Z,3.70
2023-02-12T19:21:14.432Z,3.60
2023-02-12T19:23:41.107Z,3.50
2023-02-12T19:26:16.979Z,3.40
2023-02-12T19:28:44.300Z,3.40
2023-02-12T19:31:20.274Z,3.20
2023-02-12T19:33:47.966Z,3.20
2023-02-12T19:36:19.614Z,3.00
2023-02-12T19:38:47.820Z,2.90
2023-02-12T19:41:17.676Z,2.70
2023-02-12T19:43:45.072Z,2.60
2023-02-12T19:46:17.954Z,2.50
2023-02-12T19:48:45.934Z,2.30
2023-02-12T19:51:17.318Z,2.20
2023-02-12T19:53:44.314Z,2.10
2023-02-12T19:56:11.121Z,2.00
2023-02-12T19:58:38.291Z,1.90
2023-02-12T20:01:13.924Z,1.80
2023-02-12T20:03:40.844Z,1.70
2023-02-12T20:06:11.469Z,1.60
2023-02-12T20:08:39.742Z,1.50
2023-02-12T20:11:13.104Z,1.40
2023-02-12T20:13:40.046Z,1.30
2023-02-12T20:16:12.071Z,1.30
2023-02-12T20:18:39.106Z,1.30
2023-02-12T20:21:23.945Z,1.20
2023-02-12T20:23:51.113Z,1.20
2023-02-12T20:26:19.998Z,1.10
2023-02-12T20:28:47.948Z,1.00
2023-02-12T20:31:26.061Z,1.00
2023-02-12T20:33:57.954Z,0.90
2023-02-12T20:36:25.845Z,0.80
2023-02-12T20:38:55.989Z,0.80
2023-02-12T20:41:24.526Z,0.70
2023-02-12T20:43:51.659Z,0.70
2023-02-12T20:46:21.889Z,0.60
2023-02-12T20:48:49.726Z,0.60
2023-02-12T20:51:20.159Z,0.60
2023-02-12T20:53:47.481Z,0.50
2023-02-12T20:56:17.051Z,0.40
2023-02-12T20:58:45.055Z,0.40
2023-02-12T21:01:23.596Z,0.30
2023-02-12T21:03:52.204Z,0.30
2023-02-12T21:06:20.399Z,0.20
2023-02-12T21:08:47.536Z,0.20
2023-02-12T21:11:17.897Z,0.20
2023-02-12T21:13:58.378Z,0.10
2023-02-12T21:16:34.880Z,0.10
2023-02-12T21:19:01.546Z,0.00
2023-02-12T21:21:31.092Z,0.00
2023-02-12T21:23:59.717Z,-0.10
2023-02-12T21:26:28.263Z,-0.10
2023-02-12T21:28:57.192Z,-0.20
2023-02-12T21:31:27.526Z,-0.20
2023-02-12T21:33:56.172Z,-0.20
2023-02-12T21:36:49.963Z,-0.30
2023-02-12T21:39:24.326Z,-0.30
2023-02-12T21:41:53.665Z,-0.40
2023-02-12T21:44:22.025Z,-0.40
2023-02-12T21:46:48.827Z,-0.50
2023-02-12T21:49:25.010Z,-0.50
2023-02-12T21:51:54.587Z,-0.60
2023-02-12T21:54:21.795Z,-0.60
2023-02-12T21:56:50.697Z,-0.60
2023-02-12T21:59:18.123Z,-0.60
2023-02-12T22:01:50.872Z,-0.60
2023-02-12T22:04:19.071Z,-0.70
2023-02-12T22:06:48.057Z,-0.70
2023-02-12T22:09:16.668Z,-0.70
2023-02-12T22:11:44.192Z,-0.80
2023-02-12T22:17:58.081Z,-0.80
2023-02-12T22:20:24.723Z,-0.80
2023-02-12T22:22:51.826Z,-0.90
2023-02-12T22:25:18.500Z,-0.90
2023-02-12T22:27:45.120Z,-0.90
2023-02-12T22:30:12.461Z,-1.00
2023-02-12T22:32:39.129Z,-1.00
2023-02-12T22:35:06.762Z,-1.00
2023-02-12T22:40:20.820Z,-1.00
2023-02-12T22:42:50.688Z,-1.00
2023-02-12T22:45:17.367Z,-1.10
2023-02-12T22:47:43.968Z,-1.10
2023-02-12T22:50:11.306Z,-1.10
2023-02-12T22:52:38.918Z,-1.10
2023-02-12T22:55:05.744Z,-1.10
2023-02-12T22:57:32.365Z,-1.10
2023-02-12T22:59:59.370Z,-1.10
2023-02-12T23:02:25.996Z,-1.10
2023-02-12T23:04:53.012Z,-1.10
2023-02-12T23:07:19.599Z,-1.20
2023-02-12T23:09:46.199Z,-1.10
2023-02-12T23:12:15.924Z,-1.10
2023-02-12T23:14:43.000Z,-1.10
2023-02-12T23:17:10.014Z,-1.10
2023-02-12T23:19:36.679Z,-1.20
2023-02-12T23:22:06.836Z,-1.20
2023-02-12T23:24:33.949Z,-1.20
2023-02-12T23:27:01.027Z,-1.30
2023-02-12T23:29:28.032Z,-1.30
2023-02-12T23:31:54.659Z,-1.30
2023-02-12T23:34:21.707Z,-1.30
2023-02-12T23:36:48.718Z,-1.30
2023-02-12T23:39:15.373Z,-1.40
2023-02-12T23:41:42.430Z,-1.40
2023-02-12T23:44:09.850Z,-1.40
2023-02-12T23:46:36.660Z,-1.40
2023-02-12T23:49:03.654Z,-1.40
2023-02-12T23:51:31.527Z,-1.40
2023-02-12T23:53:58.560Z,-1.50
2023-02-12T23:56:25.434Z,-1.50
2023-02-12T23:58:52.497Z,-1.50
